createdAt,value
2018-05-09T00:00:02.912Z,15.6
2018-05-09T00:05:03.195Z,15.5
2018-05-09T00:10:02.975Z,15.4
2018-05-09T00:15:03.198Z,15.4
2018-05-09T00:20:10.127Z,15.3
2018-05-09T00:25:02.876Z,15.3
2018-05-09T00:30:05.818Z,15.2
2018-05-09T00:35:02.515Z,15.1
2018-05-09T00:40:03.199Z,15.1
2018-05-09T00:45:07.558Z,14.9
2018-05-09T00:50:02.977Z,14.9
2018-05-09T00:55:05.815Z,14.8
2018-05-09T01:00:10.679Z,14.7
2018-05-09T01:05:04.878Z,14.7
2018-05-09T01:10:05.094Z,14.6
2018-05-09T01:15:07.982Z,14.6
2018-05-09T01:20:05.868Z,14.5
2018-05-09T01:25:05.203Z,14.4
2018-05-09T01:30:02.404Z,14.4
2018-05-09T01:35:02.714Z,14.4
2018-05-09T01:40:05.089Z,14.3
2018-05-09T01:45:02.762Z,14.3
2018-05-09T01:50:03.067Z,14.2
2018-05-09T01:55:02.441Z,14.2
2018-05-09T02:00:03.018Z,14.1
2018-05-09T02:05:03.291Z,14.1
2018-05-09T02:10:05.573Z,13.9
2018-05-09T02:15:12.478Z,13.8
2018-05-09T02:20:07.942Z,13.8
2018-05-09T02:25:18.407Z,13.8
2018-05-09T02:30:02.669Z,13.8
2018-05-09T02:35:05.603Z,13.6
2018-05-09T02:40:04.919Z,13.6
2018-05-09T02:45:10.335Z,13.6
2018-05-09T02:50:02.838Z,13.5
2018-05-09T02:55:08.015Z,13.5
2018-05-09T03:00:05.869Z,13.4
2018-05-09T03:05:02.598Z,13.4
2018-05-09T03:10:04.936Z,13.3
2018-05-09T03:15:02.749Z,13.3
2018-05-09T03:20:04.998Z,13.3
2018-05-09T03:25:05.292Z,13.2
2018-05-09T03:30:03.004Z,13.2
2018-05-09T03:35:05.734Z,13.2
2018-05-09T03:40:15.159Z,13.2
2018-05-09T03:45:02.838Z,13.2
2018-05-09T03:50:03.139Z,13.2
2018-05-09T03:55:04.977Z,13.2
2018-05-09T04:00:03.234Z,13.2
2018-05-09T04:05:05.085Z,13.2
2018-05-09T04:10:10.405Z,13.2
2018-05-09T04:15:08.201Z,13.3
2018-05-09T04:20:05.136Z,13.3
2018-05-09T04:25:05.373Z,13.3
2018-05-09T04:30:07.813Z,13.4
2018-05-09T04:35:03.025Z,13.4
2018-05-09T04:40:08.179Z,13.6
2018-05-09T04:45:10.882Z,13.7
2018-05-09T04:50:03.270Z,13.7
2018-05-09T04:55:05.045Z,14.1
2018-05-09T05:00:03.359Z,14.1
2018-05-09T05:05:05.311Z,14.4
2018-05-09T05:10:08.404Z,14.5
2018-05-09T05:15:05.095Z,14.7
2018-05-09T05:20:02.467Z,14.6
2018-05-09T05:25:02.738Z,14.8
2018-05-09T05:30:13.063Z,15.2
2018-05-09T05:35:08.359Z,15.4
2018-05-09T05:40:08.158Z,15.6
2018-05-09T05:45:15.218Z,15.8
2018-05-09T05:50:07.893Z,15.9
2018-05-09T05:55:20.879Z,16.1
2018-05-09T06:00:03.161Z,16.1
2018-05-09T06:05:02.478Z,16.2
2018-05-09T06:10:03.297Z,0.4
2018-05-09T06:15:05.171Z,16.7
2018-05-09T06:20:02.501Z,16.7
2018-05-09T06:25:15.132Z,17
2018-05-09T06:30:07.509Z,17.1
2018-05-09T06:35:02.760Z,17.1
2018-05-09T06:40:02.540Z,17.2
2018-05-09T06:45:07.893Z,17.4
2018-05-09T06:50:03.242Z,17.4
2018-05-09T06:55:02.516Z,17.5
2018-05-09T07:00:02.998Z,17.6
2018-05-09T07:05:03.298Z,17.7
2018-05-09T07:10:02.638Z,17.9
2018-05-09T07:15:05.504Z,18.2
2018-05-09T07:20:02.995Z,18.1
2018-05-09T07:25:02.380Z,18.4
2018-05-09T07:30:07.746Z,18.6
2018-05-09T07:35:05.582Z,18.8
2018-05-09T07:40:03.332Z,18.8
2018-05-09T07:45:02.871Z,19
2018-05-09T07:50:03.295Z,19.2
2018-05-09T07:55:05.078Z,19.5
2018-05-09T08:00:02.395Z,19.5
2018-05-09T08:05:15.368Z,19.9
2018-05-09T08:10:08.190Z,20
2018-05-09T08:15:02.490Z,20.1
2018-05-09T08:20:05.453Z,20.5
2018-05-09T08:25:03.270Z,20.4
2018-05-09T08:30:05.116Z,20.8
2018-05-09T08:35:03.118Z,20.8
2018-05-09T08:40:03.121Z,21
2018-05-09T08:45:07.636Z,21.3
2018-05-09T08:50:03.009Z,21.3
2018-05-09T08:55:07.443Z,21.8
2018-05-09T09:00:02.798Z,21.8
2018-05-09T09:05:03.300Z,22.1
2018-05-09T09:10:05.834Z,22.4
2018-05-09T09:15:10.313Z,22.6
2018-05-09T09:20:10.346Z,22.8
2018-05-09T09:25:08.116Z,23
2018-05-09T09:30:10.041Z,23.2
2018-05-09T09:35:02.800Z,23.2
2018-05-09T09:40:10.313Z,23.5
2018-05-09T09:45:02.905Z,23.5
2018-05-09T09:50:05.851Z,23.8
2018-05-09T09:55:05.212Z,24
2018-05-09T10:00:02.579Z,24
2018-05-09T10:05:02.981Z,24.2
2018-05-09T10:10:05.335Z,24.4
2018-05-09T10:15:03.275Z,24.4
2018-05-09T10:20:10.602Z,24.7
2018-05-09T10:25:05.850Z,24.8
2018-05-09T10:30:03.249Z,24.8
2018-05-09T10:35:02.650Z,24.9
2018-05-09T10:40:05.034Z,25.2
2018-05-09T10:45:05.414Z,25.2
2018-05-09T10:50:05.326Z,25.4
2018-05-09T10:55:05.644Z,25.5
2018-05-09T11:00:05.558Z,25.7
2018-05-09T11:05:02.432Z,25.7
2018-05-09T11:10:03.270Z,25.9
2018-05-09T11:15:05.215Z,26.1
2018-05-09T11:20:10.277Z,26.2
2018-05-09T11:25:03.103Z,26.2
2018-05-09T11:30:05.018Z,26.6
2018-05-09T11:35:02.915Z,26.6
2018-05-09T11:40:10.383Z,27.1
2018-05-09T11:45:23.375Z,27
2018-05-09T11:50:05.230Z,26.9
2018-05-09T11:55:05.733Z,26.6
2018-05-09T12:00:03.104Z,26.6
2018-05-09T12:05:07.644Z,27.3
2018-05-09T12:10:02.422Z,27.3
2018-05-09T12:15:10.600Z,27.4
2018-05-09T12:20:05.630Z,27.8
2018-05-09T12:25:07.526Z,28
2018-05-09T12:30:02.927Z,28
2018-05-09T12:35:07.442Z,27.9
2018-05-09T12:40:02.409Z,27.9
2018-05-09T12:45:02.841Z,28.1
2018-05-09T12:50:03.253Z,28
2018-05-09T12:55:02.545Z,28
2018-05-09T13:00:03.011Z,28.5
2018-05-09T13:05:05.056Z,29
2018-05-09T13:10:05.361Z,28.8
2018-05-09T13:15:17.517Z,29
2018-05-09T13:20:02.934Z,29.1
2018-05-09T13:25:07.421Z,30.3
2018-05-09T13:30:02.789Z,30.4
2018-05-09T13:35:03.211Z,32.3
2018-05-09T13:40:05.617Z,34.8
2018-05-09T13:45:05.075Z,34.9
2018-05-09T13:50:02.595Z,34.9
2018-05-09T13:55:09.961Z,36.7
2018-05-09T14:00:02.343Z,36.8
2018-05-09T14:05:02.923Z,36.5
2018-05-09T14:10:07.950Z,33.7
2018-05-09T14:15:04.887Z,34.1
2018-05-09T14:20:02.442Z,34.1
2018-05-09T14:25:13.166Z,34.7
2018-05-09T14:30:05.295Z,34
2018-05-09T14:35:05.003Z,32.8
2018-05-09T14:40:08.040Z,33.5
2018-05-09T14:45:07.498Z,34.7
2018-05-09T14:50:05.472Z,35.3
2018-05-09T14:55:02.573Z,35.3
2018-05-09T15:00:05.752Z,34.4
2018-05-09T15:05:02.790Z,34.3
2018-05-09T15:10:07.763Z,33.4
2018-05-09T15:15:03.225Z,33.4
2018-05-09T15:20:02.775Z,34.2
2018-05-09T15:25:03.265Z,34.4
2018-05-09T15:30:05.375Z,32.6
2018-05-09T15:35:03.245Z,32.6
2018-05-09T15:40:08.136Z,31.1
2018-05-09T15:45:05.166Z,31.2
2018-05-09T15:50:05.108Z,31.8
2018-05-09T15:55:12.539Z,32.9
2018-05-09T16:00:05.598Z,33.9
2018-05-09T16:05:02.566Z,33.9
2018-05-09T16:10:10.024Z,33.7
2018-05-09T16:15:08.048Z,33.5
2018-05-09T16:20:10.165Z,32.8
2018-05-09T16:25:03.281Z,32.8
2018-05-09T16:30:05.251Z,31.9
2018-05-09T16:35:05.756Z,31.2
2018-05-09T16:40:05.295Z,30.6
2018-05-09T16:45:04.938Z,29.8
2018-05-09T16:50:03.343Z,29.7
2018-05-09T16:55:02.819Z,29
2018-05-09T17:00:03.252Z,28.6
2018-05-09T17:05:02.748Z,28.2
2018-05-09T17:10:02.547Z,27.6
2018-05-09T17:15:05.554Z,26.8
2018-05-09T17:20:05.555Z,26.6
2018-05-09T17:25:02.452Z,26.6
2018-05-09T17:30:28.254Z,26.3
2018-05-09T17:35:02.856Z,26.3
2018-05-09T17:40:07.821Z,26.2
2018-05-09T17:45:03.152Z,26.1
2018-05-09T17:50:05.133Z,26.3
2018-05-09T17:55:02.924Z,26.2
2018-05-09T18:00:08.466Z,26.2
2018-05-09T18:05:02.718Z,26.2
2018-05-09T18:10:07.591Z,26
2018-05-09T18:15:02.869Z,26
2018-05-09T18:20:03.305Z,25.9
2018-05-09T18:25:05.268Z,25.8
2018-05-09T18:30:05.136Z,25.6
2018-05-09T18:35:05.655Z,25.5
2018-05-09T18:40:02.529Z,25.4
2018-05-09T18:45:10.883Z,25.1
2018-05-09T18:50:05.853Z,24.9
2018-05-09T18:55:02.692Z,24.9
2018-05-09T19:00:05.585Z,24.6
2018-05-09T19:05:02.453Z,24.6
2018-05-09T19:10:05.841Z,24.3
2018-05-09T19:15:07.837Z,24.1
2018-05-09T19:20:02.413Z,24.1
2018-05-09T19:25:02.951Z,24
2018-05-09T19:30:05.807Z,23.9
2018-05-09T19:35:05.351Z,23.7
2018-05-09T19:40:05.706Z,23.6
2018-05-09T19:45:02.501Z,23.6
2018-05-09T19:50:05.482Z,23.5
2018-05-09T19:55:07.507Z,23.4
2018-05-09T20:00:05.525Z,23.3
2018-05-09T20:05:07.478Z,23.1
2018-05-09T20:10:04.905Z,23
2018-05-09T20:15:07.987Z,22.9
2018-05-09T20:20:22.723Z,22.8
2018-05-09T20:25:03.071Z,22.8
2018-05-09T20:30:17.553Z,22.5
2018-05-09T20:35:05.299Z,22.4
2018-05-09T20:40:05.711Z,22.4
2018-05-09T20:45:05.040Z,22.3
2018-05-09T20:50:04.919Z,22.2
2018-05-09T20:55:05.342Z,22.1
2018-05-09T21:00:02.701Z,22.1
2018-05-09T21:05:03.072Z,22.1
2018-05-09T21:10:13.003Z,22
2018-05-09T21:15:03.235Z,22
2018-05-09T21:20:02.689Z,21.9
2018-05-09T21:25:18.303Z,21.8
2018-05-09T21:30:02.698Z,21.8
2018-05-09T21:35:05.627Z,21.7
2018-05-09T21:40:04.911Z,21.6
2018-05-09T21:45:07.796Z,21.5
2018-05-09T21:50:05.653Z,21.5
2018-05-09T21:55:02.443Z,21.5
2018-05-09T22:00:05.346Z,21.3
2018-05-09T22:05:03.158Z,21.3
2018-05-09T22:10:02.890Z,21.2
2018-05-09T22:15:03.240Z,21.1
2018-05-09T22:20:07.706Z,20.8
2018-05-09T22:25:03.000Z,20.8
2018-05-09T22:30:02.386Z,20.7
2018-05-09T22:35:12.862Z,20.5
2018-05-09T22:40:07.801Z,20.4
2018-05-09T22:45:02.989Z,20.4
2018-05-09T22:50:02.370Z,20.4
2018-05-09T22:55:07.750Z,20.1
2018-05-09T23:00:08.113Z,20.1
2018-05-09T23:05:07.557Z,20
2018-05-09T23:10:16.053Z,19.9
2018-05-09T23:15:03.218Z,19.9
2018-05-09T23:20:02.565Z,19.8
2018-05-09T23:25:05.465Z,19.8
2018-05-09T23:30:05.341Z,19.7
2018-05-09T23:35:05.686Z,19.7
2018-05-09T23:40:05.014Z,19.7
2018-05-09T23:45:02.835Z,19.7
2018-05-09T23:50:03.274Z,19.7
2018-05-09T23:55:02.946Z,19.8
